LUX weather

Public forecast

Using degrees Celsius for public forecast. Weather courtesy of forecast.io.

Current aviation weather report (METAR) for Luxembourg-Findel International Airport

Retrieved 2020/08/14 11:20 UTC (0 seconds ago):

ELLX 141120Z 25011KT 9999 SCT025 SCT045 23/16 Q1016 NOSIG

Aviation forecast (TAF) for Luxembourg-Findel International Airport

Retrieved 2020/08/14 06:28 UTC (5 hours ago):

TAF ELLX 140500Z 1406/1512 24008KT CAVOK PROB40 TEMPO 1410/1412 SHRA SCT050CB TEMPO 1414/1417 VRB15G25KT TSRA SHRA BKN045CB